Home > Products > Valid Products > TAF

000
FTUS42 KCHS 241700
TAFCHS
TAF
KCHS 241732Z 2418/2518 12012G18KT P6SM SCT035
     FM242300 13007KT P6SM SCT040
     FM250800 16006KT P6SM SCT020 BKN035
     FM251400 21013G19KT P6SM SCT040=



000
FTUS42 KCHS 241700
TAFSAV
TAF
KSAV 241732Z 2418/2518 11012G18KT P6SM FEW040
     FM242300 13007KT P6SM FEW040
     FM250700 17007KT P6SM SCT015 BKN035
     FM251400 22012G18KT P6SM FEW035=



000
FTUS42 KCHS 241100
TAFSAV
TAF
KSAV 241120Z 2412/2512 03004KT P6SM SKC
     FM241500 09010KT P6SM FEW060
     FM241900 12012G18KT P6SM FEW060
     FM250200 16008KT P6SM SCT010 BKN040=



000
FTUS42 KCHS 241100
TAFCHS
TAF
KCHS 241120Z 2412/2512 04004KT P6SM SKC
     FM241500 07010KT P6SM SKC
     FM241900 12012G18KT P6SM SKC
     FM250200 15007KT P6SM SCT030
     FM250800 16005KT P6SM SCT015 BKN045=



000
FTUS42 KCHS 240500
TAFCHS
TAF
KCHS 240520Z 2406/2506 04004KT P6SM SKC
     FM241500 07010KT P6SM FEW040
     FM241900 13012G18KT P6SM SKC
     FM250200 15007KT P6SM SCT030=



000
FTUS42 KCHS 240500
TAFSAV
TAF
KSAV 240520Z 2406/2506 VRB03KT P6SM SKC
     FM241400 09010KT P6SM SCT060
     FM241900 12012G18KT P6SM FEW060
     FM250200 16008KT P6SM SCT020 BKN060=



000
FTUS42 KCHS 240200 AAB
TAFCHS
TAF AMD
KCHS 240235Z 2403/2424 VRB03KT P6SM SKC
     FM240600 04007KT P6SM SKC
     FM241500 07010G17KT P6SM FEW040
     FM242000 13013G19KT P6SM SCT035=



000
FTUS42 KCHS 240000 AAA
TAFSAV
TAF AMD
KSAV 240057Z 2401/2424 VRB03KT P6SM SKC
     FM240900 04007KT P6SM SKC
     FM241400 08010G17KT P6SM FEW040
     FM241900 12013G19KT P6SM SCT040=



000
FTUS42 KCHS 240000 AAA
TAFCHS
TAF AMD
KCHS 240057Z 2401/2424 VRB03KT P6SM SKC
     FM240600 04009KT P6SM SKC
     FM241500 07010G17KT P6SM FEW040
     FM242000 13013G19KT P6SM SCT035=



000
FTUS42 KCHS 232300
TAFCHS
TAF
KCHS 232327Z 2400/2424 VRB05KT P6SM SKC
     FM240300 04009KT P6SM SKC
     FM241500 07010G17KT P6SM FEW040
     FM242000 13013G19KT P6SM SCT035=



000
FTUS42 KCHS 232300
TAFSAV
TAF
KSAV 232327Z 2400/2424 VRB04KT P6SM SKC
     FM240600 04007KT P6SM SKC
     FM241400 08010G17KT P6SM FEW040
     FM241900 12013G19KT P6SM SCT040=



000
FTUS42 KCHS 232000 AAA
TAFSAV
TAF AMD
KSAV 232016Z 2320/2418 28010G17KT P6SM FEW040
     FM232300 VRB03KT P6SM SKC
     FM240600 04008KT P6SM SKC
     FM241400 10009KT P6SM SKC=



000
FTUS42 KCHS 231700
TAFSAV
TAF
KSAV 231726Z 2318/2418 30008KT P6SM FEW040
     FM232300 VRB03KT P6SM SKC
     FM240600 04008KT P6SM SKC
     FM241400 10009KT P6SM SKC=



000
FTUS42 KCHS 231700
TAFCHS
TAF
KCHS 231726Z 2318/2418 32008KT P6SM SKC
     FM232300 01004KT P6SM SKC
     FM240800 04007KT P6SM SKC
     FM241400 09009KT P6SM SKC=



000
FTUS42 KCHS 231100
TAFSAV
TAF
KSAV 231126Z 2312/2412 25004KT 4SM BR OVC004
      TEMPO 2313/2314 P6SM NSW SCT006
     FM231400 34008KT P6SM FEW010
     FM231600 32008KT P6SM FEW040
     FM232100 12008KT P6SM SKC
     FM240600 03005KT P6SM SKC=



000
FTUS42 KCHS 231100
TAFCHS
TAF
KCHS 231126Z 2312/2412 28005KT P6SM SCT006
     FM231400 36010KT P6SM SKC
     FM231800 33008KT P6SM SKC
     FM240000 VRB03KT P6SM SKC
     FM240600 02004KT P6SM SKC=



000
FTUS42 KCHS 231000 AAA
TAFCHS
TAF AMD
KCHS 231001Z 2310/2406 24005KT 5SM BR BKN006
      TEMPO 2311/2313 P6SM NSW SCT006
     FM231300 36010G15KT P6SM SCT040
     FM232000 33008KT P6SM SKC
     FM240000 VRB03KT P6SM SKC=



000
FTUS42 KCHS 231000 AAB
TAFSAV
TAF AMD
KSAV 231000Z 2310/2406 25004KT 4SM BR OVC005
      TEMPO 2311/2313 SCT005
     FM231300 34008KT P6SM FEW010
     FM231600 32008KT P6SM FEW040
     FM232100 12008KT P6SM SKC=



000
FTUS42 KCHS 230800 AAA
TAFSAV
TAF AMD
KSAV 230802Z 2308/2406 25004KT 6SM MIFG SKC
     FM231000 30005KT 4SM BR SCT004
      TEMPO 2310/2312 2SM BR BKN002
     FM231230 34008KT P6SM FEW010
     FM231600 32008KT P6SM FEW040
     FM232100 12008KT P6SM SKC=



000
FTUS42 KCHS 230500
TAFSAV
TAF
KSAV 230529Z 2306/2406 25004KT 4SM BR SCT100
      TEMPO 2306/2308 2SM BR FEW004
     FM230800 30005KT 2SM BR SCT004
      TEMPO 2309/2312 1/2SM FG BKN002
     FM231230 34008KT P6SM FEW010
     FM231600 32008KT P6SM FEW040
     FM232100 12008KT P6SM SKC=



000
FTUS42 KCHS 230500
TAFCHS
TAF
KCHS 230529Z 2306/2406 24005KT P6SM SKC
     FM231300 36010G15KT P6SM SCT040
     FM232000 33008KT P6SM SKC
     FM240000 VRB03KT P6SM SKC=



000
FTUS42 KCHS 230200 AAC
TAFCHS
TAF AMD
KCHS 230211Z 2302/2324 VRB04KT P6SM MIFG SCT050 BKN080
      TEMPO 2302/2304 6SM -SHRA BR
     FM230900 33007KT 6SM BR SCT010 SCT040
     FM231300 36010G15KT P6SM SCT040
     FM232100 04010KT P6SM SCT045=



000
FTUS42 KCHS 230100 AAB
TAFSAV
TAF AMD
KSAV 230156Z 2302/2324 VRB04KT P6SM -SHRA SCT060 BKN090
     FM230400 VRB04KT P6SM MIFG SCT050 BKN100
     FM230800 30005KT 4SM BR SCT004 SCT040
     FM231300 34008KT P6SM SCT040
     FM232100 12008KT P6SM SCT045=



000
FTUS42 KCHS 230100 AAB
TAFCHS
TAF AMD
KCHS 230154Z 2302/2324 VRB04KT P6SM MIFG SCT050 BKN080
     FM230900 33007KT 6SM BR SCT010 SCT040
     FM231300 36010G15KT P6SM SCT040
     FM232100 04010KT P6SM SCT045=



000
FTUS42 KCHS 230000 CCA
TAFSAV
TAF COR
KSAV 230049Z 2301/2324 VRB06KT P6SM -TSRA SCT050CB BKN080
      TEMPO 2301/2302 VRB20G30KT 2SM +TSRA SCT020 OVC040CB
     FM230200 VRB04KT P6SM SCT050 BKN100
     FM230900 30005KT 6SM BR SCT006 SCT040
     FM231300 34008KT P6SM SCT040
     FM232100 12008KT P6SM SCT045=



000
FTUS42 KCHS 230000 AAA
TAFSAV
TAF AMD
KSAV 230043Z 2301/2324 VRB06KT P6SM -SHRA SCT050 BKN080
      TEMPO 2301/2302 VRB20G30KT 2SM +SHRA SCT020 OVC040
     FM230200 VRB04KT P6SM SCT050 BKN100
     FM230900 30005KT 6SM BR SCT006 SCT040
     FM231300 34008KT P6SM SCT040
     FM232100 12008KT P6SM SCT045=



000
FTUS42 KCHS 230000 AAA
TAFCHS
TAF AMD
KCHS 230036Z 2301/2324 VRB05KT P6SM -SHRA SCT050 OVC090
      TEMPO 2301/2302 VRB10G15KT 4SM SHRA SCT020 OVC050
     FM230200 30005KT P6SM SCT050 BKN100
     FM230900 33007KT 6SM BR SCT010 SCT040
     FM231300 36010G15KT P6SM SCT040
     FM232100 04010KT P6SM SCT045=



000
FTUS42 KCHS 222300
TAFCHS
TAF
KCHS 222324Z 2300/2324 20009KT P6SM VCSH SCT050 OVC080
      TEMPO 2300/2302 30020G30KT 1SM +SHRA SCT020 OVC050
     FM230200 30005KT P6SM SCT050 BKN090
     FM230900 33007KT 6SM BR SCT010 SCT040
     FM231300 36010G15KT P6SM SCT040
     FM232100 04010KT P6SM SCT045=



000
FTUS42 KCHS 222300
TAFSAV
TAF
KSAV 222324Z 2300/2324 26008KT P6SM VCTS SCT050CB BKN080
      TEMPO 2300/2302 VRB20G30KT 3/4SM +TSRA SCT020 OVC040CB
     FM230200 VRB04KT P6SM SCT050 BKN080
     FM230900 30005KT 6SM BR SCT006 SCT040
     FM231300 34008KT P6SM SCT040
     FM232100 12008KT P6SM SCT045=



000
FTUS42 KCHS 222000 AAA
TAFCHS
TAF AMD
KCHS 222031Z 2221/2318 28012G18KT P6SM BKN060
     FM222300 27008KT P6SM VCSH BKN060
     FM230300 29008KT P6SM SCT050
     FM230900 33007KT 6SM BR FEW015 SCT050
     FM231300 36008KT P6SM SCT040=



000
FTUS42 KCHS 221700
TAFSAV
TAF
KSAV 221740Z 2218/2318 28011G17KT P6SM SCT060
     FM222300 26006KT P6SM VCSH BKN060
     FM230300 28006KT P6SM SCT050
     FM230900 30005KT 6SM BR SCT015 SCT050
     FM231300 33007KT P6SM SCT040=



000
FTUS42 KCHS 221700
TAFCHS
TAF
KCHS 221740Z 2218/2318 26012G18KT P6SM SCT060
     FM222300 25008KT P6SM VCSH BKN060
     FM230300 29008KT P6SM SCT050
     FM230900 33007KT 6SM BR FEW015 SCT050
     FM231300 36008KT P6SM SCT040=



000
FTUS42 KCHS 221600 AAA
TAFSAV
TAF AMD
KSAV 221628Z 2216/2312 27011G17KT P6SM SKC
     FM221900 27011G17KT P6SM SCT060 SCT120
     FM230000 27005KT P6SM SCT040 BKN090=



000
FTUS42 KCHS 221100
TAFSAV
TAF
KSAV 221128Z 2212/2312 26007KT P6SM FEW150
     FM221800 25010G16KT P6SM SCT060 SCT120
     FM230000 27005KT P6SM SCT040 BKN090=



000
FTUS42 KCHS 221100
TAFCHS
TAF
KCHS 221128Z 2212/2312 25007KT P6SM FEW150
     FM221800 25011G17KT P6SM SCT060 SCT150
     FM230000 26006KT P6SM SCT040 BKN090=



000
FTUS42 KCHS 220500
TAFCHS
TAF
KCHS 220523Z 2206/2306 VRB03KT P6SM FEW250
     FM221400 27008KT P6SM FEW250
     FM221800 25012G17KT P6SM SCT060 SCT120
     FM230000 26006KT P6SM SCT050 BKN140=



000
FTUS42 KCHS 220500
TAFSAV
TAF
KSAV 220523Z 2206/2306 VRB02KT P6SM FEW250
     FM221400 26008KT P6SM FEW250
     FM221800 25010G15KT P6SM SCT060 SCT120
     FM230000 27005KT P6SM SCT050 BKN140=



000
FTUS42 KCHS 212300
TAFCHS
TAF
KCHS 212320Z 2200/2224 VRB03KT P6SM FEW250
     FM221400 27008KT P6SM FEW250
     FM221700 26012G17KT P6SM FEW050 SCT100=



000
FTUS42 KCHS 212300
TAFSAV
TAF
KSAV 212320Z 2200/2224 VRB02KT P6SM FEW250
     FM221400 27008KT P6SM FEW250
     FM221700 26010G15KT P6SM FEW050 SCT150=



    US Dept of Commerce
    National Oceanic and Atmospheric Administration
    National Weather Service
    1325 East West Highway
    Silver Spring, MD 20910
    Page Author: NWS Internet Services Team
Disclaimer
Information Quality
Credits
Glossary
Privacy Policy
Freedom of Information Act (FOIA)
About Us
Career Opportunities